Time;durP1;ratioP1;P1;durP2;ratioP2;P2;SDS_P1;SDS_P2;PMS_P1;PMS_P2;Temp;Humidity;BMP_temperature;BMP_pressure;BME280_temperature;BME280_humidity;BME280_pressure;Samples;Min_cycle;Max_cycle;Signal;HPM_P1;HPM_P2
2023/09/20 00:02:13;;;;;;;1.90;1.50;;;18.00;99.90;;;;;;4871618;29;20296;-70
2023/09/20 00:04:47;;;;;;;4.70;1.55;;;18.00;99.90;;;;;;4875881;29;20233;-67
2023/09/20 00:07:14;;;;;;;3.17;2.00;;;18.00;99.90;;;;;;4876447;29;20662;-62
2023/09/20 00:09:42;;;;;;;2.78;1.73;;;18.00;99.90;;;;;;4890609;29;20336;-67
2023/09/20 00:12:09;;;;;;;4.45;1.70;;;18.00;99.90;;;;;;4875949;29;20205;-70
2023/09/20 00:14:37;;;;;;;2.75;1.90;;;18.10;99.90;;;;;;4875894;29;20314;-63
2023/09/20 00:17:04;;;;;;;2.60;1.80;;;18.10;99.90;;;;;;4877460;29;20198;-63
2023/09/20 00:19:32;;;;;;;3.70;1.80;;;18.10;99.90;;;;;;4874881;29;20212;-63
2023/09/20 00:21:59;;;;;;;6.75;1.80;;;18.10;99.90;;;;;;4877061;29;20241;-63
2023/09/20 00:24:27;;;;;;;3.08;1.70;;;18.10;99.90;;;;;;4859630;29;20198;-65
2023/09/20 00:26:54;;;;;;;4.75;1.90;;;18.10;99.90;;;;;;4871247;29;20198;-61
2023/09/20 00:29:24;;;;;;;5.97;1.95;;;18.10;99.90;;;;;;4862196;29;20295;-65
2023/09/20 00:31:52;;;;;;;3.78;1.70;;;18.10;99.90;;;;;;4879063;29;20226;-65
2023/09/20 00:34:19;;;;;;;2.92;1.50;;;18.10;99.90;;;;;;4868226;29;20225;-64
2023/09/20 00:36:46;;;;;;;4.78;2.00;;;18.10;99.90;;;;;;4870351;29;20258;-63
2023/09/20 00:39:14;;;;;;;5.55;1.98;;;17.90;99.90;;;;;;4862237;29;20206;-65
2023/09/20 00:41:41;;;;;;;4.68;1.60;;;17.80;99.90;;;;;;4884994;29;20273;-65
2023/09/20 00:44:08;;;;;;;6.55;1.98;;;17.80;99.90;;;;;;4878472;29;20663;-67
2023/09/20 00:46:38;;;;;;;9.63;2.10;;;17.80;99.90;;;;;;4873094;29;20202;-64
2023/09/20 00:49:06;;;;;;;2.17;1.77;;;17.70;99.90;;;;;;4874025;29;20217;-63
2023/09/20 00:51:33;;;;;;;3.17;1.67;;;17.70;99.90;;;;;;4859163;29;20202;-63
2023/09/20 00:54:04;;;;;;;3.00;1.67;;;17.70;99.90;;;;;;4882860;29;20671;-64
2023/09/20 00:56:32;;;;;;;4.72;1.83;;;17.60;99.90;;;;;;4878093;29;20210;-64
2023/09/20 00:59:05;;;;;;;3.47;2.00;;;17.60;99.90;;;;;;4862020;29;20197;-63
2023/09/20 01:01:36;;;;;;;3.72;1.60;;;17.60;99.90;;;;;;4870718;29;20668;-63
2023/09/20 01:04:05;;;;;;;6.65;1.50;;;17.50;99.90;;;;;;4873887;29;20324;-63
2023/09/20 01:06:33;;;;;;;2.97;1.65;;;17.60;99.90;;;;;;4878634;29;20701;-64
2023/09/20 01:09:00;;;;;;;4.30;1.80;;;17.60;99.90;;;;;;4863390;29;20856;-64
2023/09/20 01:11:27;;;;;;;3.17;1.50;;;17.50;99.90;;;;;;4890808;29;20258;-65
2023/09/20 01:13:55;;;;;;;2.85;1.80;;;17.50;99.90;;;;;;4863662;29;20256;-64
2023/09/20 01:16:22;;;;;;;2.30;1.42;;;17.40;99.90;;;;;;4891081;29;20577;-63
2023/09/20 01:18:50;;;;;;;4.15;1.60;;;17.60;99.90;;;;;;4877740;29;20217;-63
2023/09/20 01:21:17;;;;;;;1.77;1.60;;;17.60;99.90;;;;;;4882192;29;20204;-62
2023/09/20 01:23:44;;;;;;;3.42;1.55;;;17.60;99.90;;;;;;4862162;29;20217;-63
2023/09/20 01:26:12;;;;;;;4.38;1.67;;;17.70;99.90;;;;;;4881897;29;20502;-69
2023/09/20 01:28:39;;;;;;;5.55;2.03;;;17.60;99.90;;;;;;4874634;29;20198;-63
2023/09/20 01:31:07;;;;;;;3.35;1.88;;;17.60;99.90;;;;;;4876034;29;20265;-62
2023/09/20 01:33:35;;;;;;;3.90;1.70;;;17.60;99.90;;;;;;4878351;29;20249;-63
2023/09/20 01:36:05;;;;;;;2.30;1.52;;;17.60;99.90;;;;;;4875812;29;20267;-67
2023/09/20 01:38:34;;;;;;;2.00;1.60;;;17.60;99.90;;;;;;4891922;29;20653;-73
2023/09/20 01:41:03;;;;;;;2.83;1.52;;;17.70;99.90;;;;;;4873396;29;20554;-62
2023/09/20 01:43:30;;;;;;;5.15;1.75;;;17.70;99.90;;;;;;4886484;29;20226;-63
2023/09/20 01:45:58;;;;;;;2.17;1.52;;;17.80;99.90;;;;;;4881143;29;20685;-66
2023/09/20 01:48:25;;;;;;;6.63;1.50;;;17.80;99.90;;;;;;4865599;29;20225;-65
2023/09/20 01:50:53;;;;;;;4.20;1.60;;;17.90;99.90;;;;;;4877231;29;20229;-64
2023/09/20 01:53:21;;;;;;;1.65;1.25;;;18.00;99.90;;;;;;4880658;29;20754;-70
2023/09/20 01:55:48;;;;;;;4.78;1.88;;;18.00;99.90;;;;;;4881737;29;20214;-66
2023/09/20 01:58:15;;;;;;;1.85;1.50;;;18.10;99.90;;;;;;4875852;29;20263;-67
2023/09/20 02:04:42;;;;;;;1.95;1.73;;;18.00;99.90;;;;;;4874891;29;20560;-64
2023/09/20 02:07:10;;;;;;;2.38;1.42;;;18.00;99.90;;;;;;4874613;29;20730;-65
2023/09/20 02:09:37;;;;;;;3.03;1.30;;;18.00;99.90;;;;;;4876603;29;20190;-65
2023/09/20 02:12:04;;;;;;;2.83;1.60;;;17.90;99.90;;;;;;4884393;29;20679;-64
2023/09/20 02:14:31;;;;;;;2.08;1.58;;;17.80;99.90;;;;;;4874735;29;20252;-65
2023/09/20 02:16:58;;;;;;;1.77;1.40;;;17.70;99.90;;;;;;4882789;29;20202;-64
2023/09/20 02:19:25;;;;;;;4.28;1.63;;;17.70;99.90;;;;;;4860103;29;20204;-66
2023/09/20 02:21:54;;;;;;;3.75;1.50;;;17.60;99.90;;;;;;4874377;29;20277;-65
2023/09/20 02:24:22;;;;;;;5.72;1.83;;;17.50;99.90;;;;;;4877046;29;20214;-67
2023/09/20 02:26:49;;;;;;;3.78;1.60;;;17.40;99.90;;;;;;4877351;29;20650;-67
2023/09/20 02:29:17;;;;;;;5.25;1.95;;;17.50;99.90;;;;;;4859538;29;20201;-64
2023/09/20 02:31:44;;;;;;;5.28;1.92;;;17.40;99.90;;;;;;4882806;29;20404;-64
2023/09/20 02:34:13;;;;;;;3.97;1.77;;;18.50;99.90;;;;;;4870043;29;20679;-64
2023/09/20 02:36:40;;;;;;;9.80;1.50;;;17.40;99.90;;;;;;4887507;29;20251;-64
2023/09/20 02:39:09;;;;;;;2.97;1.58;;;17.30;99.90;;;;;;4867150;29;20202;-64
2023/09/20 02:41:36;;;;;;;5.18;1.80;;;17.40;99.90;;;;;;4880601;29;20285;-64
2023/09/20 02:44:03;;;;;;;5.20;1.80;;;17.30;99.90;;;;;;4876761;29;20218;-64
2023/09/20 02:46:31;;;;;;;4.90;1.60;;;17.30;99.90;;;;;;4873376;29;20312;-65
2023/09/20 02:48:59;;;;;;;2.35;1.58;;;17.20;99.90;;;;;;4885967;29;20300;-67
2023/09/20 02:51:27;;;;;;;4.03;1.60;;;17.20;99.90;;;;;;4874348;29;20202;-65
2023/09/20 02:53:54;;;;;;;2.75;1.55;;;17.20;99.90;;;;;;4876348;29;20646;-62
2023/09/20 02:56:21;;;;;;;6.88;1.42;;;17.20;99.90;;;;;;4875375;29;20824;-63
2023/09/20 02:58:48;;;;;;;3.50;1.70;;;17.10;99.90;;;;;;4873742;29;20197;-69
2023/09/20 03:01:16;;;;;;;5.38;1.67;;;17.10;99.90;;;;;;4877161;29;20213;-62
2023/09/20 03:03:43;;;;;;;8.38;2.13;;;17.10;99.90;;;;;;4882727;29;20222;-62
2023/09/20 03:06:10;;;;;;;3.95;1.55;;;17.10;99.90;;;;;;4873839;29;20198;-62
2023/09/20 03:08:44;;;;;;;4.65;1.92;;;17.10;99.90;;;;;;4892507;29;20252;-62
2023/09/20 03:11:21;;;;;;;2.28;1.50;;;17.00;99.90;;;;;;4871623;29;20208;-67
2023/09/20 03:13:49;;;;;;;9.60;1.70;;;17.10;99.90;;;;;;4874371;29;20326;-63
2023/09/20 03:16:18;;;;;;;3.78;1.80;;;17.10;99.90;;;;;;4872794;29;20233;-65
2023/09/20 03:18:46;;;;;;;1.90;1.33;;;17.00;99.90;;;;;;4874939;29;20572;-63
2023/09/20 03:21:13;;;;;;;3.30;1.30;;;17.10;99.90;;;;;;4872757;29;20214;-65
2023/09/20 03:23:40;;;;;;;3.80;1.52;;;17.10;99.90;;;;;;4877697;29;20293;-68
2023/09/20 03:26:09;;;;;;;2.35;1.77;;;17.10;99.90;;;;;;4875690;29;20674;-62
2023/09/20 03:28:36;;;;;;;5.88;1.98;;;17.10;99.90;;;;;;4893807;29;20240;-65
2023/09/20 03:31:10;;;;;;;3.65;2.00;;;17.00;99.90;;;;;;4870440;29;20647;-65
2023/09/20 03:33:38;;;;;;;1.90;1.50;;;17.00;99.90;;;;;;4875074;29;20229;-64
2023/09/20 03:36:15;;;;;;;2.85;1.42;;;17.10;99.90;;;;;;4874530;29;20757;-65
2023/09/20 03:38:45;;;;;;;5.07;1.60;;;17.00;99.90;;;;;;4890151;29;20194;-66
2023/09/20 03:41:12;;;;;;;3.47;1.88;;;17.00;99.90;;;;;;4872371;29;20213;-66
2023/09/20 03:43:40;;;;;;;3.28;1.73;;;17.00;99.90;;;;;;4890457;29;20671;-65
2023/09/20 03:46:09;;;;;;;4.88;1.63;;;17.00;99.90;;;;;;4876477;29;20194;-62
2023/09/20 03:48:36;;;;;;;1.95;1.58;;;17.00;99.90;;;;;;4872646;29;20204;-64
2023/09/20 03:51:04;;;;;;;4.00;1.73;;;17.00;99.90;;;;;;4877235;29;20706;-64
2023/09/20 03:53:34;;;;;;;3.10;1.75;;;17.00;99.90;;;;;;4872453;29;20432;-62
2023/09/20 03:56:02;;;;;;;3.08;1.55;;;17.00;99.90;;;;;;4873929;29;20213;-62
2023/09/20 03:58:30;;;;;;;4.13;1.63;;;17.00;99.90;;;;;;4888173;29;20547;-64
2023/09/20 04:00:58;;;;;;;6.20;2.05;;;17.00;99.90;;;;;;4874214;29;20278;-62
2023/09/20 04:03:25;;;;;;;2.70;1.63;;;17.00;99.90;;;;;;4875089;29;20216;-63
2023/09/20 04:05:56;;;;;;;6.55;2.00;;;17.10;99.90;;;;;;4878665;29;20201;-62
2023/09/20 04:08:23;;;;;;;3.45;1.40;;;17.10;99.90;;;;;;4876713;29;20257;-63
2023/09/20 04:10:50;;;;;;;5.03;1.40;;;17.00;99.90;;;;;;4879858;29;20227;-66
2023/09/20 04:13:17;;;;;;;7.35;1.70;;;17.00;99.90;;;;;;4875466;29;20219;-66
2023/09/20 04:15:44;;;;;;;4.10;1.75;;;16.90;99.90;;;;;;4875852;29;20206;-66
2023/09/20 04:18:13;;;;;;;7.53;1.65;;;16.90;99.90;;;;;;4874770;29;20210;-67
2023/09/20 04:20:41;;;;;;;5.90;2.38;;;17.00;99.90;;;;;;4880043;29;20200;-65
2023/09/20 04:23:10;;;;;;;3.35;1.58;;;16.90;99.90;;;;;;4849025;29;20214;-64
2023/09/20 04:25:38;;;;;;;7.75;1.77;;;16.90;99.90;;;;;;4873817;29;20233;-63
2023/09/20 04:28:06;;;;;;;6.22;1.65;;;17.00;99.90;;;;;;4868915;29;20269;-63
2023/09/20 04:30:33;;;;;;;4.80;1.95;;;16.90;99.90;;;;;;4880017;29;20193;-68
2023/09/20 04:33:01;;;;;;;2.75;1.90;;;17.00;99.90;;;;;;4868068;29;20495;-65
2023/09/20 04:35:37;;;;;;;2.00;1.60;;;17.00;99.90;;;;;;4852230;29;20269;-63
2023/09/20 04:38:12;;;;;;;4.45;2.47;;;17.00;99.90;;;;;;4872840;29;20234;-69
2023/09/20 04:40:45;;;;;;;5.85;1.73;;;17.00;99.90;;;;;;4873381;29;20201;-65
2023/09/20 04:43:14;;;;;;;4.10;1.60;;;17.00;99.90;;;;;;4859120;29;20585;-71
2023/09/20 04:45:50;;;;;;;7.60;1.90;;;17.00;99.90;;;;;;4890206;29;20224;-65
2023/09/20 04:48:20;;;;;;;3.40;1.40;;;16.90;99.90;;;;;;4841542;29;20226;-66
2023/09/20 04:50:51;;;;;;;2.67;1.60;;;17.00;99.90;;;;;;4863490;29;20288;-68
2023/09/20 04:53:18;;;;;;;5.25;1.73;;;16.90;99.90;;;;;;4852241;29;20209;-66
2023/09/20 04:55:45;;;;;;;2.35;1.52;;;17.00;99.90;;;;;;4878567;29;20546;-64
2023/09/20 04:58:12;;;;;;;4.55;1.60;;;16.90;99.90;;;;;;4883265;29;20208;-73
2023/09/20 05:00:42;;;;;;;5.30;1.38;;;16.90;99.90;;;;;;4865647;29;20281;-63
2023/09/20 05:03:14;;;;;;;6.93;1.60;;;16.90;99.90;;;;;;4885137;29;20202;-64
2023/09/20 05:05:44;;;;;;;4.95;2.08;;;16.90;99.90;;;;;;4861609;29;20608;-65
2023/09/20 05:08:15;;;;;;;2.50;1.88;;;16.90;99.90;;;;;;4875851;29;20586;-64
2023/09/20 05:10:43;;;;;;;5.07;1.50;;;16.90;99.90;;;;;;4858844;29;20194;-62
2023/09/20 05:13:10;;;;;;;2.58;1.40;;;16.90;99.90;;;;;;4870096;29;20703;-64
2023/09/20 05:15:38;;;;;;;2.08;1.38;;;16.80;99.90;;;;;;4873542;29;20339;-67
2023/09/20 05:18:07;;;;;;;3.90;1.95;;;16.70;99.90;;;;;;4874341;29;20200;-63
2023/09/20 05:20:35;;;;;;;3.00;1.52;;;16.80;99.90;;;;;;4894449;29;20630;-61
2023/09/20 05:23:04;;;;;;;5.47;1.40;;;16.80;99.90;;;;;;4888607;29;20199;-61
2023/09/20 05:25:31;;;;;;;3.28;1.67;;;16.70;99.90;;;;;;4872589;29;20202;-61
2023/09/20 05:27:58;;;;;;;6.07;1.73;;;16.70;99.90;;;;;;4892866;29;20258;-65
2023/09/20 05:30:26;;;;;;;2.05;1.63;;;16.80;99.90;;;;;;4890590;29;20204;-62
2023/09/20 05:32:53;;;;;;;3.60;1.40;;;16.80;99.90;;;;;;4876078;29;20222;-63
2023/09/20 05:35:20;;;;;;;3.78;1.80;;;16.80;99.90;;;;;;4875777;29;20242;-65
2023/09/20 05:37:48;;;;;;;2.38;1.40;;;16.90;99.90;;;;;;4876358;29;20212;-66
2023/09/20 05:40:18;;;;;;;3.03;1.67;;;16.80;99.90;;;;;;4889706;29;20233;-68
2023/09/20 05:42:52;;;;;;;4.07;1.42;;;16.90;99.90;;;;;;4876607;29;20263;-62
2023/09/20 05:45:20;;;;;;;4.85;1.67;;;17.00;99.90;;;;;;4866111;29;20315;-63
2023/09/20 05:47:49;;;;;;;3.80;1.42;;;17.10;99.90;;;;;;4891386;29;20209;-62
2023/09/20 05:50:16;;;;;;;1.60;1.25;;;17.20;99.90;;;;;;4893599;29;20293;-62
2023/09/20 05:52:44;;;;;;;2.75;1.90;;;17.30;99.90;;;;;;4879740;29;20233;-62
2023/09/20 05:55:13;;;;;;;3.97;1.75;;;17.60;99.90;;;;;;4891364;29;20198;-64
2023/09/20 05:57:44;;;;;;;3.92;1.77;;;18.60;99.90;;;;;;4872468;29;20229;-65
2023/09/20 06:00:22;;;;;;;4.60;1.50;;;18.80;99.90;;;;;;4893517;29;20228;-64
2023/09/20 06:02:50;;;;;;;2.20;1.30;;;19.10;99.90;;;;;;4878678;29;20676;-64
2023/09/20 06:05:18;;;;;;;5.60;1.58;;;18.80;99.90;;;;;;4891703;29;20229;-66
2023/09/20 06:07:46;;;;;;;2.15;1.52;;;18.70;99.90;;;;;;4891242;29;20687;-74
2023/09/20 06:10:16;;;;;;;2.90;1.70;;;19.00;99.90;;;;;;4879272;29;20667;-65
2023/09/20 06:12:43;;;;;;;3.85;1.60;;;19.10;99.90;;;;;;4896445;29;20273;-65
2023/09/20 06:15:13;;;;;;;2.67;1.77;;;19.20;99.90;;;;;;4877610;29;20272;-64
2023/09/20 06:17:44;;;;;;;4.57;1.42;;;19.50;99.90;;;;;;4878738;29;20253;-62
2023/09/20 06:20:19;;;;;;;3.60;1.67;;;20.80;99.90;;;;;;4874719;29;20692;-63
2023/09/20 06:22:50;;;;;;;4.72;1.80;;;22.00;99.90;;;;;;4866601;29;20292;-66
2023/09/20 06:25:21;;;;;;;2.55;1.52;;;22.10;99.90;;;;;;4870115;29;20281;-62
2023/09/20 06:27:53;;;;;;;9.77;3.92;;;20.90;99.90;;;;;;4865061;29;20225;-65
2023/09/20 06:30:21;;;;;;;3.83;1.65;;;20.20;99.90;;;;;;4858950;29;20623;-82
2023/09/20 06:32:56;;;;;;;5.03;1.77;;;19.80;99.90;;;;;;4862371;29;20324;-64
2023/09/20 06:35:24;;;;;;;3.85;1.83;;;20.50;99.90;;;;;;4876262;29;20310;-63
2023/09/20 06:37:54;;;;;;;5.13;1.92;;;21.30;99.90;;;;;;4864979;29;20233;-77
2023/09/20 06:40:31;;;;;;;4.65;2.00;;;21.60;99.90;;;;;;4876823;29;20618;-63
2023/09/20 06:42:58;;;;;;;5.30;2.25;;;21.40;99.90;;;;;;4871937;29;20206;-71
2023/09/20 06:45:27;;;;;;;2.45;1.90;;;21.70;99.90;;;;;;4847339;29;20554;-63
2023/09/20 06:47:55;;;;;;;2.45;1.77;;;22.50;99.90;;;;;;4849935;29;20654;-63
2023/09/20 06:50:23;;;;;;;2.28;1.80;;;22.30;99.90;;;;;;4859054;29;20205;-62
2023/09/20 06:52:53;;;;;;;4.55;1.92;;;22.00;99.90;;;;;;4875370;29;20201;-63
2023/09/20 06:55:20;;;;;;;3.83;1.73;;;23.20;99.90;;;;;;4864014;29;20607;-62
2023/09/20 06:57:48;;;;;;;4.18;1.88;;;23.30;99.90;;;;;;4876090;29;20237;-64
2023/09/20 07:00:20;;;;;;;4.75;1.73;;;23.50;99.90;;;;;;4876224;29;20690;-64
2023/09/20 07:02:55;;;;;;;3.63;1.67;;;23.90;99.90;;;;;;4882098;29;20313;-64
2023/09/20 07:05:28;;;;;;;4.82;2.53;;;24.90;99.90;;;;;;4871444;29;20217;-65
2023/09/20 07:08:00;;;;;;;3.53;1.88;;;24.90;99.90;;;;;;4851240;29;20201;-63
2023/09/20 07:10:33;;;;;;;3.83;1.88;;;26.50;99.90;;;;;;4875659;29;20526;-67
2023/09/20 07:13:00;;;;;;;2.17;1.98;;;26.10;99.90;;;;;;4874859;29;21306;-65
2023/09/20 07:15:28;;;;;;;2.10;1.90;;;25.20;99.90;;;;;;4875034;29;20246;-65
2023/09/20 07:17:58;;;;;;;2.00;1.75;;;23.50;99.90;;;;;;4876769;29;20209;-70
2023/09/20 07:20:29;;;;;;;2.25;1.60;;;23.10;99.90;;;;;;4871473;29;20205;-65
2023/09/20 07:22:58;;;;;;;3.92;1.77;;;23.10;99.90;;;;;;4874002;29;20223;-65
2023/09/20 07:25:27;;;;;;;4.22;1.75;;;23.10;99.90;;;;;;4859508;29;20220;-65
2023/09/20 07:27:57;;;;;;;1.52;1.42;;;23.30;99.90;;;;;;4871725;29;20190;-68
2023/09/20 07:30:31;;;;;;;2.80;1.92;;;23.00;99.90;;;;;;4884536;29;20321;-62
2023/09/20 07:33:02;;;;;;;2.45;2.22;;;22.90;99.90;;;;;;4879422;29;20222;-62
2023/09/20 07:35:39;;;;;;;2.85;1.92;;;22.50;99.90;;;;;;4860464;29;20635;-62
2023/09/20 07:38:17;;;;;;;2.75;1.90;;;22.70;99.90;;;;;;4867543;29;20202;-67
2023/09/20 07:40:50;;;;;;;3.45;2.10;;;22.70;99.90;;;;;;4874275;29;20228;-64
2023/09/20 07:43:18;;;;;;;4.45;1.67;;;22.50;99.90;;;;;;4858797;29;20265;-63
2023/09/20 07:45:56;;;;;;;2.88;2.10;;;23.50;99.90;;;;;;4858922;29;20619;-63
2023/09/20 07:48:24;;;;;;;2.83;1.88;;;24.40;99.90;;;;;;4868228;29;20201;-75
2023/09/20 07:50:52;;;;;;;2.13;1.63;;;24.00;99.90;;;;;;4873955;29;20193;-65
2023/09/20 07:53:20;;;;;;;2.47;1.90;;;24.80;99.90;;;;;;4850570;29;20197;-65
2023/09/20 07:56:00;;;;;;;3.60;1.80;;;24.50;99.90;;;;;;4853183;29;20206;-64
2023/09/20 07:58:28;;;;;;;3.70;1.95;;;24.00;99.90;;;;;;4870986;29;21189;-70
2023/09/20 08:00:56;;;;;;;1.80;1.50;;;23.90;99.90;;;;;;4854645;29;20202;-67
2023/09/20 08:03:24;;;;;;;4.03;2.08;;;23.60;99.90;;;;;;4873110;29;20213;-68
2023/09/20 08:05:54;;;;;;;1.80;1.70;;;25.00;99.90;;;;;;4872881;29;20573;-69
2023/09/20 08:08:21;;;;;;;3.13;1.60;;;25.10;99.90;;;;;;4852809;29;20242;-68
2023/09/20 08:10:48;;;;;;;2.72;1.92;;;24.40;99.90;;;;;;4873645;29;20198;-67
2023/09/20 08:13:32;;;;;;;3.45;1.88;;;24.70;99.90;;;;;;4872048;29;20217;-68
2023/09/20 08:16:02;;;;;;;2.15;1.70;;;24.40;99.90;;;;;;4870816;29;20205;-70
2023/09/20 08:21:15;;;;;;;4.55;1.85;;;25.40;99.90;;;;;;4870233;29;20209;-69
2023/09/20 09:00:18;;;;;;;2.30;2.05;;;26.00;99.90;;;;;;4874945;29;20209;-72
2023/09/20 09:02:46;;;;;;;2.60;2.10;;;28.40;99.90;;;;;;4864512;29;20324;-68
2023/09/20 09:05:15;;;;;;;2.83;2.20;;;27.00;99.90;;;;;;4872487;29;20232;-66
2023/09/20 09:07:42;;;;;;;2.05;1.85;;;25.80;99.90;;;;;;4876267;29;20566;-67
2023/09/20 09:10:09;;;;;;;2.10;1.90;;;25.70;99.90;;;;;;4872591;29;20201;-68
2023/09/20 09:12:36;;;;;;;2.40;2.20;;;27.80;99.90;;;;;;4874745;29;20603;-69
2023/09/20 09:15:07;;;;;;;2.47;1.80;;;30.50;99.90;;;;;;4884073;29;20249;-65
2023/09/20 09:17:48;;;;;;;2.08;1.90;;;29.90;99.90;;;;;;4880962;29;20662;-67
2023/09/20 09:20:21;;;;;;;5.22;2.13;;;30.90;99.90;;;;;;4878836;29;20645;-68
2023/09/20 09:22:49;;;;;;;3.60;2.00;;;29.10;99.90;;;;;;4877761;29;20625;-70
2023/09/20 09:25:25;;;;;;;2.78;2.20;;;27.10;99.90;;;;;;4878373;29;20641;-63
2023/09/20 09:27:53;;;;;;;2.38;1.95;;;25.60;99.90;;;;;;4877912;29;20252;-72
2023/09/20 09:30:21;;;;;;;3.65;1.80;;;27.40;99.90;;;;;;4862686;29;20211;-62
2023/09/20 09:32:50;;;;;;;2.28;1.98;;;27.60;99.90;;;;;;4856211;29;20236;-63
2023/09/20 09:35:20;;;;;;;1.90;1.80;;;29.10;99.90;;;;;;4868963;29;20670;-66
2023/09/20 09:38:04;;;;;;;2.20;2.00;;;28.00;99.90;;;;;;4872348;29;20221;-63
2023/09/20 09:40:31;;;;;;;4.03;1.85;;;28.80;99.90;;;;;;4878605;29;20297;-70
2023/09/20 09:43:15;;;;;;;2.65;1.88;;;26.90;99.90;;;;;;4876210;29;20676;-68
2023/09/20 09:45:44;;;;;;;2.08;1.88;;;26.10;99.90;;;;;;4874549;29;20214;-63
2023/09/20 09:48:15;;;;;;;2.55;2.08;;;26.10;99.90;;;;;;4874259;29;20198;-62
2023/09/20 09:50:46;;;;;;;5.10;1.90;;;25.30;99.90;;;;;;4862248;29;20201;-62
2023/09/20 09:53:20;;;;;;;3.17;2.25;;;25.30;99.90;;;;;;4872966;29;20565;-68
2023/09/20 09:55:49;;;;;;;2.03;1.92;;;26.60;99.90;;;;;;4874086;29;20649;-67
2023/09/20 09:58:17;;;;;;;2.95;2.03;;;27.40;99.90;;;;;;4879186;29;20293;-65
2023/09/20 10:00:49;;;;;;;4.70;1.75;;;27.00;99.90;;;;;;4869098;29;20244;-63
2023/09/20 10:03:29;;;;;;;2.38;2.00;;;26.90;99.90;;;;;;4877172;29;20215;-63
2023/09/20 10:06:14;;;;;;;1.75;1.65;;;27.10;99.90;;;;;;4875029;29;20213;-64
2023/09/20 10:08:42;;;;;;;1.95;1.80;;;26.00;99.90;;;;;;4868214;29;20205;-67
2023/09/20 10:11:10;;;;;;;2.83;1.80;;;26.50;99.90;;;;;;4875054;29;20293;-67
2023/09/20 10:13:39;;;;;;;3.70;2.70;;;25.90;99.90;;;;;;4876132;29;20235;-68
2023/09/20 10:16:11;;;;;;;2.10;2.00;;;26.70;99.90;;;;;;4872542;29;20194;-68
2023/09/20 10:18:56;;;;;;;2.10;1.90;;;26.40;99.90;;;;;;4869052;29;20202;-68
2023/09/20 10:21:30;;;;;;;1.90;1.70;;;25.10;99.90;;;;;;4852143;29;20220;-71
2023/09/20 10:23:59;;;;;;;2.72;2.20;;;24.30;99.90;;;;;;4870317;29;20631;-66
2023/09/20 10:26:27;;;;;;;1.60;1.50;;;25.40;99.90;;;;;;4874738;29;20566;-68
2023/09/20 10:29:18;;;;;;;1.73;1.63;;;26.30;99.90;;;;;;4869986;29;20197;-67
2023/09/20 10:31:47;;;;;;;5.60;1.60;;;26.20;99.90;;;;;;4874699;29;20236;-69
2023/09/20 10:34:15;;;;;;;2.05;1.85;;;26.80;99.90;;;;;;4872421;29;20647;-63
2023/09/20 10:36:52;;;;;;;3.65;2.20;;;27.90;99.90;;;;;;4875188;29;20206;-64
2023/09/20 10:39:19;;;;;;;5.50;3.58;;;26.60;99.90;;;;;;4868684;29;20201;-63
2023/09/20 10:41:47;;;;;;;4.13;2.30;;;26.80;99.90;;;;;;4874733;29;20197;-63
2023/09/20 10:44:33;;;;;;;4.22;3.28;;;26.20;99.90;;;;;;4875680;29;20206;-63
2023/09/20 10:47:11;;;;;;;2.55;1.92;;;25.70;99.90;;;;;;4872190;29;20781;-64
2023/09/20 10:49:55;;;;;;;2.03;1.80;;;25.30;99.90;;;;;;4872468;29;20561;-64
2023/09/20 10:52:32;;;;;;;4.47;2.05;;;25.00;99.90;;;;;;4873060;29;20204;-63
2023/09/20 10:55:15;;;;;;;3.17;1.83;;;25.50;99.90;;;;;;4868686;29;20292;-63
2023/09/20 10:57:42;;;;;;;3.92;2.45;;;26.30;99.90;;;;;;4858160;29;20213;-63
2023/09/20 11:00:09;;;;;;;3.50;1.80;;;26.00;99.90;;;;;;4873279;29;20238;-63
2023/09/20 11:02:38;;;;;;;4.32;2.08;;;25.90;99.90;;;;;;4874769;29;20201;-63
2023/09/20 11:05:05;;;;;;;2.38;1.88;;;25.30;99.90;;;;;;4872924;29;20292;-65
2023/09/20 11:07:33;;;;;;;2.42;1.73;;;24.60;99.90;;;;;;4864097;29;20257;-63
2023/09/20 11:10:02;;;;;;;3.88;1.75;;;24.00;99.90;;;;;;4863061;29;20204;-65
2023/09/20 11:12:30;;;;;;;2.55;1.70;;;24.20;99.90;;;;;;4857580;29;20217;-64
2023/09/20 11:14:57;;;;;;;2.00;1.80;;;23.60;99.90;;;;;;4869790;29;20683;-65
2023/09/20 11:17:24;;;;;;;2.72;1.80;;;23.70;99.90;;;;;;4872634;29;20607;-66
2023/09/20 11:19:51;;;;;;;4.90;1.70;;;23.80;99.90;;;;;;4873972;29;20584;-65
2023/09/20 11:22:18;;;;;;;5.15;1.80;;;24.00;99.90;;;;;;4864295;29;20213;-63
2023/09/20 11:24:47;;;;;;;3.97;1.58;;;23.60;99.90;;;;;;4861118;29;20209;-65
2023/09/20 11:27:14;;;;;;;2.28;1.65;;;23.90;99.90;;;;;;4872998;29;20212;-64
2023/09/20 11:29:43;;;;;;;5.53;1.58;;;23.60;99.90;;;;;;4865761;29;20655;-65
2023/09/20 11:32:11;;;;;;;1.90;1.80;;;23.90;99.90;;;;;;4872901;29;20848;-64
2023/09/20 11:34:48;;;;;;;3.20;1.70;;;24.20;99.90;;;;;;4863981;29;20737;-65
2023/09/20 11:37:20;;;;;;;2.85;1.65;;;24.10;99.90;;;;;;4868807;29;20213;-64
2023/09/20 11:39:51;;;;;;;2.97;1.70;;;23.50;99.90;;;;;;4864886;29;20209;-63
2023/09/20 11:42:43;;;;;;;1.70;1.60;;;23.80;99.90;;;;;;4874888;29;20202;-62
2023/09/20 11:45:10;;;;;;;4.18;1.73;;;23.60;99.90;;;;;;4869500;29;20269;-66
2023/09/20 11:47:58;;;;;;;2.40;1.52;;;24.00;99.90;;;;;;4872347;29;20208;-67
2023/09/20 11:50:25;;;;;;;2.88;1.50;;;24.40;99.90;;;;;;4886125;29;20209;-66
2023/09/20 11:52:53;;;;;;;1.75;1.65;;;24.40;99.90;;;;;;4873716;29;20204;-67
2023/09/20 11:55:21;;;;;;;1.80;1.70;;;24.30;99.90;;;;;;4871270;29;20241;-67
2023/09/20 11:57:49;;;;;;;4.55;1.88;;;24.60;99.90;;;;;;4873771;29;20545;-66
2023/09/20 12:00:23;;;;;;;1.80;1.67;;;24.30;99.90;;;;;;4877873;29;20683;-67
2023/09/20 12:02:51;;;;;;;2.47;1.60;;;23.80;99.90;;;;;;4883344;29;20205;-68
2023/09/20 12:05:24;;;;;;;3.42;1.85;;;23.90;99.90;;;;;;4880162;29;20582;-63
2023/09/20 12:07:59;;;;;;;1.75;1.30;;;23.90;99.90;;;;;;4878487;29;20202;-63
2023/09/20 12:10:27;;;;;;;1.98;1.65;;;23.80;99.90;;;;;;4873834;29;20208;-63
2023/09/20 12:12:55;;;;;;;1.95;1.50;;;24.20;99.90;;;;;;4880615;29;20197;-63
2023/09/20 12:15:22;;;;;;;5.85;1.83;;;23.90;99.90;;;;;;4877044;29;20277;-64
2023/09/20 12:17:51;;;;;;;4.18;1.90;;;23.80;99.90;;;;;;4885763;29;20314;-63
2023/09/20 12:20:19;;;;;;;1.80;1.65;;;24.10;99.90;;;;;;4879990;29;20210;-64
2023/09/20 12:22:46;;;;;;;1.88;1.70;;;23.80;99.90;;;;;;4888215;29;20666;-66
2023/09/20 12:25:16;;;;;;;2.92;1.70;;;24.10;99.90;;;;;;4864756;29;20317;-66
2023/09/20 12:27:43;;;;;;;2.65;1.77;;;24.60;99.90;;;;;;4880235;29;20287;-62
2023/09/20 12:30:12;;;;;;;2.28;1.58;;;24.80;99.90;;;;;;4871840;29;20208;-66
2023/09/20 12:32:43;;;;;;;3.25;1.67;;;25.00;99.90;;;;;;4880996;29;20296;-63
2023/09/20 12:35:10;;;;;;;1.83;1.60;;;24.60;99.90;;;;;;4869387;29;20227;-63
2023/09/20 12:37:38;;;;;;;2.53;1.77;;;24.50;99.90;;;;;;4869337;29;20254;-69
2023/09/20 12:40:09;;;;;;;2.67;1.73;;;24.40;99.90;;;;;;4879149;29;20667;-64
2023/09/20 12:42:39;;;;;;;1.88;1.77;;;24.40;99.90;;;;;;4879976;29;20223;-64
2023/09/20 12:45:07;;;;;;;2.45;2.05;;;24.50;99.90;;;;;;4875609;29;20670;-66
2023/09/20 12:47:39;;;;;;;1.95;1.75;;;24.20;99.90;;;;;;4879613;29;20694;-64
2023/09/20 12:50:12;;;;;;;4.70;2.00;;;24.80;99.90;;;;;;4877173;29;20210;-64
2023/09/20 12:52:44;;;;;;;2.50;1.85;;;24.50;99.90;;;;;;4879342;29;20229;-64
2023/09/20 12:55:13;;;;;;;2.85;1.73;;;24.60;99.90;;;;;;4878081;29;20201;-66
2023/09/20 12:57:44;;;;;;;1.95;1.63;;;24.70;99.90;;;;;;4885485;29;20758;-66
2023/09/20 13:00:16;;;;;;;2.83;1.50;;;24.70;99.90;;;;;;4878256;29;20225;-66
2023/09/20 13:03:06;;;;;;;1.52;1.42;;;24.80;99.90;;;;;;4879040;29;20597;-66
2023/09/20 13:05:36;;;;;;;2.20;1.83;;;24.30;99.90;;;;;;4879908;29;20209;-67
2023/09/20 13:08:04;;;;;;;3.03;1.80;;;24.20;99.90;;;;;;4866917;29;20293;-66
2023/09/20 13:10:33;;;;;;;2.80;1.80;;;23.80;99.90;;;;;;4878492;29;20234;-67
2023/09/20 13:13:08;;;;;;;1.98;1.80;;;23.60;99.90;;;;;;4881585;29;20198;-66
2023/09/20 13:15:35;;;;;;;2.88;1.60;;;23.80;99.90;;;;;;4880459;29;20236;-66
2023/09/20 13:18:02;;;;;;;1.65;1.50;;;23.60;99.90;;;;;;4877961;29;20205;-67
2023/09/20 13:20:31;;;;;;;2.28;2.00;;;23.60;99.90;;;;;;4884427;29;20721;-71
2023/09/20 13:22:58;;;;;;;4.50;1.90;;;23.70;99.90;;;;;;4884666;29;20820;-69
2023/09/20 13:25:31;;;;;;;1.80;1.70;;;23.50;99.90;;;;;;4884163;29;20256;-75
2023/09/20 13:27:58;;;;;;;5.18;2.28;;;23.40;99.90;;;;;;4882719;29;20670;-66
2023/09/20 13:30:26;;;;;;;2.92;1.83;;;23.40;99.90;;;;;;4882246;29;20228;-67
2023/09/20 13:32:53;;;;;;;2.42;1.90;;;23.60;99.90;;;;;;4859930;29;20891;-66
2023/09/20 13:35:21;;;;;;;2.10;1.90;;;23.50;99.90;;;;;;4881921;29;20730;-67
2023/09/20 13:37:48;;;;;;;4.50;1.95;;;23.60;99.90;;;;;;4883817;29;20364;-69
2023/09/20 13:40:18;;;;;;;1.95;1.70;;;23.50;99.90;;;;;;4888211;29;20229;-66
2023/09/20 13:42:45;;;;;;;2.17;1.73;;;23.50;99.90;;;;;;4871680;29;20730;-66
2023/09/20 13:45:15;;;;;;;2.47;1.90;;;23.60;99.90;;;;;;4882669;29;20336;-67